Latest Coastal Weather Observations for Croker Island Airport

IDD60701

Issued at 10:21 pm CST Friday 28 August 2015 (issued every 10 minutes, with the page automatically refreshed every 10 minutes)

About coastal observations | Map of coastal stations | Coastal observations for NT | Marine services | Other Formats
Station Details ID: 014308 Name: CROKER ISLAND AIRPORT Lat: -11.16 Lon: 132.48 Height: 9.2 m
Data from the previous 72 hours. | See also: Recent months for locations in Northern Territory
Date/Time
CST
Temp

°C
Wind Pressure Rain
since 9am
mm
Weather Cloud Vis
km
Sea
Height
m
Swell
Dir
 
Speed
knots
Gust
knots
hPa Trend Height
m
Period
s
Dir
28/10:00pm 23.1 NE 3 3 1014.8 - 0.0 - - - - - - -
28/09:30pm 23.4 NE 3 3 1014.6 - 0.0 - - - - - - -
28/09:00pm 23.6 NE 3 4 1014.4 - 0.0 - - - - - - -
28/08:30pm 23.9 NE 4 5 1014.1 - 0.0 - - - - - - -
28/08:00pm 24.1 NE 4 5 1013.8 - 0.0 - - - - - - -
28/07:30pm 24.4 NE 3 4 1013.5 - 0.0 - - - - - - -
28/07:00pm 25.0 E 5 6 1013.1 - 0.0 - - - - - - -
28/06:30pm 25.7 ENE 7 11 1012.8 - 0.0 - - - - - - -
28/06:00pm 26.5 E 9 13 1012.6 - 0.0 - - - - - - -
28/05:30pm 27.5 E 9 13 1012.2 - 0.0 - - - - - - -
28/05:00pm 28.1 ENE 11 16 1012.1 - 0.0 - - - - - - -
28/04:30pm 28.4 ENE 11 16 1012.2 - 0.0 - - - - - - -
28/04:00pm 28.8 E 10 15 1012.4 - 0.0 - - - - - - -
28/03:30pm 29.4 E 11 16 1012.4 - 0.0 - - - - - - -
28/03:00pm 29.9 ENE 11 15 1012.7 - 0.0 - - - - - - -
28/02:30pm 29.5 E 11 18 1013.2 - 0.0 - - - - - - -
28/02:00pm 29.6 ENE 14 22 1013.4 - 0.0 - - - - - - -
28/01:30pm 30.1 ENE 15 24 1013.9 - 0.0 - - - - - - -
28/01:00pm 30.6 ESE 10 19 1014.3 - 0.0 - - - - - - -
28/12:30pm 30.2 ESE 11 17 1014.8 - 0.0 - - - - - - -
28/12:00pm 29.7 ESE 12 18 1015.3 - 0.0 - - - - - - -
28/11:30am 29.6 ESE 11 16 1015.7 - 0.0 - - - - - - -
28/11:00am 29.2 E 12 17 1016.1 - 0.0 - - - - - - -
28/10:30am 29.0 ENE 14 20 1016.3 - 0.0 - - - - - - -
28/10:00am 29.1 E 13 19 1016.4 - 0.0 - - - - - - -
28/09:30am 28.3 E 8 13 1016.2 - 0.0 - - - - - - -
28/09:00am 27.4 ESE 10 13 1015.9 - 0.0 - - - - - - -
28/08:30am 26.8 E 8 14 1015.8 - 0.0 - - - - - - -
28/08:00am 25.3 ESE 5 8 1015.5 - 0.0 - - - - - - -
28/07:30am 24.3 ESE 4 7 1015.3 - 0.0 - - - - - - -
28/07:00am 23.7 E 6 8 1014.8 - 0.0 - - - - - - -
28/06:30am 24.0 ESE 6 10 1014.6 - 0.0 - - - - - - -
28/06:00am 24.1 ESE 7 11 1014.4 - 0.0 - - - - - - -
28/05:30am 24.5 E 9 14 1014.2 - 0.0 - - - - - - -
28/05:00am 24.5 E 10 15 1013.8 - 0.0 - - - - - - -
28/04:30am 24.8 E 11 17 1013.6 - 0.0 - - - - - - -
28/04:00am 24.9 E 10 14 1013.7 - 0.0 - - - - - - -
28/03:30am 24.9 E 10 15 1013.7 - 0.0 - - - - - - -
28/03:00am 24.4 E 6 10 1013.9 - 0.0 - - - - - - -
28/02:30am 24.1 ENE 5 8 1014.0 - 0.0 - - - - - - -
28/02:00am 24.0 ENE 5 7 1014.2 - 0.0 - - - - - - -
28/01:30am 24.0 ENE 4 6 1014.5 - 0.0 - - - - - - -
28/01:00am 23.9 ENE 5 7 1014.8 - 0.0 - - - - - - -
28/12:30am 23.7 ENE 3 5 1015.0 - 0.0 - - - - - - -
28/12:00am 23.9 ENE 4 6 1015.0 - 0.0 - - - - - - -
 
Date/Time
CST
Temp

°C
Wind Pressure Rain
since 9am
mm
Weather Cloud Vis
km
Sea
Height
m
Swell
Dir
 
Speed
knots
Gust
knots
hPa Trend Height
m
Period
s
Dir
27/11:30pm 23.7 ENE 3 4 1015.0 - 0.0 - - - - - - -
27/11:00pm 23.8 ENE 4 5 1015.2 - 0.0 - - - - - - -
27/10:30pm 23.6 ENE 3 4 1015.0 - 0.0 - - - - - - -
27/10:00pm 23.6 NE 3 4 1015.0 - 0.0 - - - - - - -
27/09:30pm 23.7 ENE 4 5 1014.8 - 0.0 - - - - - - -
27/09:00pm 23.7 ENE 4 5 1014.5 - 0.0 - - - - - - -
27/08:30pm 23.9 ENE 3 5 1014.4 - 0.0 - - - - - - -
27/08:00pm 24.2 ENE 3 4 1014.2 - 0.0 - - - - - - -
27/07:30pm 24.5 NE 4 6 1014.0 - 0.0 - - - - - - -
27/07:00pm 25.0 NE 7 9 1013.5 - 0.0 - - - - - - -
27/06:30pm 25.6 NE 8 13 1013.5 - 0.0 - - - - - - -
27/06:00pm 26.6 ENE 8 12 1013.6 - 0.0 - - - - - - -
27/05:30pm 26.9 E 10 14 1013.4 - 0.0 - - - - - - -
27/05:00pm 28.1 E 9 14 1013.1 - 0.0 - - - - - - -
27/04:30pm 28.4 E 9 15 1012.8 - 0.0 - - - - - - -
27/04:00pm 27.9 ENE 10 14 1012.7 - 0.0 - - - - - - -
27/03:30pm 28.9 ENE 10 15 1012.8 - 0.0 - - - - - - -
27/03:00pm 28.9 ENE 9 15 1013.1 - 0.0 - - - - - - -
27/02:30pm 29.2 E 11 15 1013.4 - 0.0 - - - - - - -
27/02:00pm 29.2 E 11 16 1013.9 - 0.0 - - - - - - -
27/01:30pm 29.7 E 12 17 1014.3 - 0.0 - - - - - - -
27/01:00pm 29.6 E 11 17 1014.4 - 0.0 - - - - - - -
27/12:30pm 29.4 ENE 10 17 1014.9 - 0.0 - - - - - - -
27/12:00pm 28.7 ENE 10 16 1015.4 - 0.0 - - - - - - -
27/11:30am 29.2 E 10 15 1015.6 - 0.0 - - - - - - -
27/11:00am 28.7 ENE 13 19 1016.0 - 0.0 - - - - - - -
27/10:30am 28.5 ENE 12 17 1016.4 - 0.0 - - - - - - -
27/10:00am 27.9 ENE 11 20 1016.5 - 0.0 - - - - - - -
27/09:30am 27.1 E 12 17 1016.2 - 0.0 - - - - - - -
27/09:00am 26.9 ENE 10 15 1016.0 - 0.0 - - - - - - -
27/08:30am 26.3 E 11 17 1015.5 - 0.0 - - - - - - -
27/08:00am 25.4 E 9 13 1015.2 - 0.0 - - - - - - -
27/07:30am 23.9 E 6 9 1015.1 - 0.0 - - - - - - -
27/07:00am 23.5 E 7 11 1014.7 - 0.0 - - - - - - -
27/06:30am 23.2 E 5 7 1014.3 - 0.0 - - - - - - -
27/06:00am 22.4 ENE 4 5 1013.8 - 0.0 - - - - - - -
27/05:30am 21.4 ENE 1 3 1013.6 - 0.0 - - - - - - -
27/05:00am 21.6 E 2 2 1013.5 - 0.0 - - - - - - -
27/04:30am 21.2 E 1 2 1013.4 - 0.0 - - - - - - -
27/04:00am 20.5 CALM 0 0 1013.2 - 0.0 - - - - - - -
27/03:30am 21.1 ENE 2 2 1013.2 - 0.0 - - - - - - -
27/03:00am 21.4 ENE 2 3 1013.2 - 0.0 - - - - - - -
27/02:30am 20.9 CALM 0 0 1013.5 - 0.0 - - - - - - -
27/02:00am 21.2 NE 2 3 1013.7 - 0.0 - - - - - - -
27/01:30am 22.2 NE 3 5 1013.8 - 0.0 - - - - - - -
27/01:00am 22.2 ENE 4 5 1014.1 - 0.0 - - - - - - -
27/12:30am 22.3 NE 4 5 1014.2 - 0.0 - - - - - - -
27/12:00am 21.8 ENE 3 3 1014.5 - 0.0 - - - - - - -
 
Date/Time
CST
Temp

°C
Wind Pressure Rain
since 9am
mm
Weather Cloud Vis
km
Sea
Height
m
Swell
Dir
 
Speed
knots
Gust
knots
hPa Trend Height
m
Period
s
Dir
26/11:30pm 21.9 NE 2 3 1014.6 - 0.0 - - - - - - -
26/11:00pm 22.1 ENE 3 4 1014.5 - 0.0 - - - - - - -
26/10:30pm 22.2 NE 3 3 1014.4 - 0.0 - - - - - - -
26/10:00pm 22.4 ENE 3 3 1014.5 - 0.0 - - - - - - -
26/09:30pm 23.0 ENE 2 3 1014.5 - 0.0 - - - - - - -
26/09:00pm 23.6 E 4 5 1014.3 - 0.0 - - - - - - -
26/08:30pm 23.9 E 4 5 1014.1 - 0.0 - - - - - - -
26/08:00pm 24.3 E 5 7 1014.0 - 0.0 - - - - - - -
26/07:30pm 24.7 E 7 12 1013.6 - 0.0 - - - - - - -
26/07:00pm 25.0 E 9 13 1013.4 - 0.0 - - - - - - -
26/06:30pm 25.5 E 9 14 1013.3 - 0.0 - - - - - - -
26/06:00pm 26.4 E 10 15 1012.9 - 0.0 - - - - - - -
26/05:30pm 27.3 E 10 15 1012.9 - 0.0 - - - - - - -
26/05:00pm 27.7 E 11 17 1012.8 - 0.0 - - - - - - -
26/04:30pm 27.9 E 11 15 1012.8 - 0.0 - - - - - - -
26/04:00pm 28.2 E 10 16 1012.8 - 0.0 - - - - - - -
26/03:30pm 28.5 E 10 14 1012.8 - 0.0 - - - - - - -
26/03:00pm 29.0 E 12 17 1013.0 - 0.0 - - - - - - -
26/02:30pm 29.0 E 12 18 1013.4 - 0.0 - - - - - - -
26/02:00pm 28.8 E 12 17 1013.9 - 0.0 - - - - - - -
26/01:30pm 29.1 E 12 20 1014.3 - 0.0 - - - - - - -
26/01:00pm 28.6 E 10 15 1015.0 - 0.0 - - - - - - -
26/12:30pm 27.8 E 11 17 1015.6 - 0.0 - - - - - - -
26/12:00pm 28.4 E 12 16 1015.8 - 0.0 - - - - - - -
26/11:30am 28.2 E 13 19 1016.0 - 0.0 - - - - - - -
26/11:00am 29.3 ENE 13 20 1016.4 - 0.0 - - - - - - -
26/10:30am 28.9 E 11 17 1016.7 - 0.0 - - - - - - -
26/10:00am 28.0 E 11 16 1016.7 - 0.0 - - - - - - -
26/09:30am 27.2 E 11 17 1016.6 - 0.0 - - - - - - -
26/09:00am 27.1 E 12 19 1016.4 - 0.0 - - - - - - -
26/08:30am 26.9 E 12 18 1016.1 - 0.0 - - - - - - -
26/08:00am 26.3 E 8 12 1015.6 - 0.0 - - - - - - -
26/07:30am 25.0 E 6 11 1015.2 - 0.0 - - - - - - -
26/07:00am 23.8 E 4 6 1014.9 - 0.0 - - - - - - -
26/06:30am 24.0 E 5 9 1014.6 - 0.0 - - - - - - -
26/06:00am 24.0 E 5 7 1014.2 - 0.0 - - - - - - -
26/05:30am 24.3 ENE 5 7 1013.9 - 0.0 - - - - - - -
26/05:00am 24.3 ENE 6 10 1013.6 - 0.0 - - - - - - -
26/04:30am 24.3 ENE 8 11 1013.4 - 0.0 - - - - - - -
26/04:00am 24.2 ENE 7 9 1013.3 - 0.0 - - - - - - -
26/03:30am 24.1 ENE 6 11 1013.2 - 0.0 - - - - - - -
26/03:00am 24.2 ENE 6 10 1013.2 - 0.0 - - - - - - -
26/02:30am 24.2 ENE 6 9 1013.4 - 0.0 - - - - - - -
26/02:00am 24.1 ENE 5 8 1013.5 - 0.0 - - - - - - -
26/01:30am 24.0 ENE 5 8 1013.7 - 0.0 - - - - - - -
26/01:00am 23.8 ENE 4 5 1014.1 - 0.0 - - - - - - -
26/12:30am 23.8 ENE 4 5 1014.3 - 0.0 - - - - - - -
26/12:00am 23.8 ENE 3 5 1014.5 - 0.0 - - - - - - -
 
Date/Time
CST
Temp

°C
Wind Pressure Rain
since 9am
mm
Weather Cloud Vis
km
Sea
Height
m
Swell
Dir
 
Speed
knots
Gust
knots
hPa Trend Height
m
Period
s
Dir
25/11:30pm 23.9 ENE 4 5 1014.5 - 0.0 - - - - - - -
25/11:00pm 24.0 ENE 4 5 1014.5 - 0.0 - - - - - - -
25/10:30pm 24.2 ENE 5 7 1014.4 - 0.0 - - - - - - -

Other Formats:

Comma delimited format used in spreadsheet applications
http://www.bom.gov.au/fwo/IDD60701/IDD60701.94108.axf

JavaScript Object Notation format (JSON) in row-major order
http://www.bom.gov.au/fwo/IDD60701/IDD60701.94108.json